sensor_id;sensor_type;location;lat;lon;timestamp;P1;durP1;ratioP1;P2;durP2;ratioP2
37931;SDS011;23758;42.640;23.302;2023-11-19T00:01:08;3.20;;;3.00;;
37931;SDS011;23758;42.640;23.302;2023-11-19T00:03:33;3.10;;;2.90;;
37931;SDS011;23758;42.640;23.302;2023-11-19T00:06:00;3.05;;;2.85;;
37931;SDS011;23758;42.640;23.302;2023-11-19T00:08:25;3.30;;;3.10;;
37931;SDS011;23758;42.640;23.302;2023-11-19T00:10:52;3.10;;;2.90;;
37931;SDS011;23758;42.640;23.302;2023-11-19T00:13:17;3.20;;;3.00;;
37931;SDS011;23758;42.640;23.302;2023-11-19T00:15:43;3.30;;;3.10;;
37931;SDS011;23758;42.640;23.302;2023-11-19T00:18:10;3.10;;;2.90;;
37931;SDS011;23758;42.640;23.302;2023-11-19T00:20:35;3.20;;;3.00;;
37931;SDS011;23758;42.640;23.302;2023-11-19T00:23:01;3.10;;;2.90;;
37931;SDS011;23758;42.640;23.302;2023-11-19T00:25:27;3.15;;;2.95;;
37931;SDS011;23758;42.640;23.302;2023-11-19T00:27:53;3.10;;;2.90;;
37931;SDS011;23758;42.640;23.302;2023-11-19T00:30:19;3.10;;;2.90;;
37931;SDS011;23758;42.640;23.302;2023-11-19T00:32:44;3.10;;;2.90;;
37931;SDS011;23758;42.640;23.302;2023-11-19T00:35:10;3.40;;;3.20;;
37931;SDS011;23758;42.640;23.302;2023-11-19T00:37:38;3.05;;;2.85;;
37931;SDS011;23758;42.640;23.302;2023-11-19T00:40:05;3.08;;;2.88;;
37931;SDS011;23758;42.640;23.302;2023-11-19T00:42:31;3.20;;;3.00;;
37931;SDS011;23758;42.640;23.302;2023-11-19T00:44:56;3.05;;;2.85;;
37931;SDS011;23758;42.640;23.302;2023-11-19T00:47:23;3.20;;;3.00;;
37931;SDS011;23758;42.640;23.302;2023-11-19T00:49:48;3.20;;;3.00;;
37931;SDS011;23758;42.640;23.302;2023-11-19T00:52:15;3.25;;;3.05;;
37931;SDS011;23758;42.640;23.302;2023-11-19T00:54:41;3.10;;;2.90;;
37931;SDS011;23758;42.640;23.302;2023-11-19T00:57:06;3.10;;;2.90;;
37931;SDS011;23758;42.640;23.302;2023-11-19T00:59:32;3.33;;;3.13;;
37931;SDS011;23758;42.640;23.302;2023-11-19T01:01:57;3.20;;;3.00;;
37931;SDS011;23758;42.640;23.302;2023-11-19T01:04:24;3.38;;;3.17;;
37931;SDS011;23758;42.640;23.302;2023-11-19T01:06:49;3.20;;;3.00;;
37931;SDS011;23758;42.640;23.302;2023-11-19T01:09:15;3.53;;;3.33;;
37931;SDS011;23758;42.640;23.302;2023-11-19T01:11:40;3.20;;;3.00;;
37931;SDS011;23758;42.640;23.302;2023-11-19T01:14:06;3.20;;;3.00;;
37931;SDS011;23758;42.640;23.302;2023-11-19T01:16:31;3.20;;;3.00;;
37931;SDS011;23758;42.640;23.302;2023-11-19T01:18:57;3.15;;;2.95;;
37931;SDS011;23758;42.640;23.302;2023-11-19T01:21:22;3.05;;;2.85;;
37931;SDS011;23758;42.640;23.302;2023-11-19T01:23:48;3.30;;;3.10;;
37931;SDS011;23758;42.640;23.302;2023-11-19T01:26:13;3.25;;;3.05;;
37931;SDS011;23758;42.640;23.302;2023-11-19T01:28:39;3.20;;;3.00;;
37931;SDS011;23758;42.640;23.302;2023-11-19T01:31:10;3.17;;;2.97;;
37931;SDS011;23758;42.640;23.302;2023-11-19T01:33:36;3.10;;;2.90;;
37931;SDS011;23758;42.640;23.302;2023-11-19T01:36:02;3.20;;;3.00;;
37931;SDS011;23758;42.640;23.302;2023-11-19T01:38:28;3.28;;;3.08;;
37931;SDS011;23758;42.640;23.302;2023-11-19T01:40:57;3.20;;;3.00;;
37931;SDS011;23758;42.640;23.302;2023-11-19T01:43:32;3.20;;;3.00;;
37931;SDS011;23758;42.640;23.302;2023-11-19T01:45:59;3.30;;;3.10;;
37931;SDS011;23758;42.640;23.302;2023-11-19T01:48:26;3.22;;;3.03;;
37931;SDS011;23758;42.640;23.302;2023-11-19T01:50:51;3.10;;;2.90;;
37931;SDS011;23758;42.640;23.302;2023-11-19T01:53:18;3.30;;;3.10;;
37931;SDS011;23758;42.640;23.302;2023-11-19T01:55:43;3.15;;;2.95;;
37931;SDS011;23758;42.640;23.302;2023-11-19T01:58:09;3.25;;;3.05;;
37931;SDS011;23758;42.640;23.302;2023-11-19T02:00:35;3.20;;;3.00;;
37931;SDS011;23758;42.640;23.302;2023-11-19T02:03:00;3.38;;;3.17;;
37931;SDS011;23758;42.640;23.302;2023-11-19T02:05:26;3.42;;;3.22;;
37931;SDS011;23758;42.640;23.302;2023-11-19T02:07:51;3.22;;;3.03;;
37931;SDS011;23758;42.640;23.302;2023-11-19T02:10:17;3.20;;;3.00;;
37931;SDS011;23758;42.640;23.302;2023-11-19T02:12:44;3.20;;;3.00;;
37931;SDS011;23758;42.640;23.302;2023-11-19T02:15:10;3.17;;;2.97;;
37931;SDS011;23758;42.640;23.302;2023-11-19T02:17:35;3.30;;;3.10;;
37931;SDS011;23758;42.640;23.302;2023-11-19T02:20:05;3.40;;;3.20;;
37931;SDS011;23758;42.640;23.302;2023-11-19T02:22:34;3.40;;;3.20;;
37931;SDS011;23758;42.640;23.302;2023-11-19T02:25:00;3.35;;;3.15;;
37931;SDS011;23758;42.640;23.302;2023-11-19T02:30:03;3.40;;;3.20;;
37931;SDS011;23758;42.640;23.302;2023-11-19T02:32:31;3.40;;;3.20;;
37931;SDS011;23758;42.640;23.302;2023-11-19T02:34:56;3.17;;;2.97;;
37931;SDS011;23758;42.640;23.302;2023-11-19T02:37:22;3.50;;;3.30;;
37931;SDS011;23758;42.640;23.302;2023-11-19T02:39:48;3.20;;;3.00;;
37931;SDS011;23758;42.640;23.302;2023-11-19T02:42:13;3.30;;;3.10;;
37931;SDS011;23758;42.640;23.302;2023-11-19T02:44:39;3.30;;;3.10;;
37931;SDS011;23758;42.640;23.302;2023-11-19T02:47:09;3.20;;;3.00;;
37931;SDS011;23758;42.640;23.302;2023-11-19T02:49:34;3.40;;;3.20;;
37931;SDS011;23758;42.640;23.302;2023-11-19T02:52:01;3.30;;;3.10;;
37931;SDS011;23758;42.640;23.302;2023-11-19T02:54:26;3.25;;;3.05;;
37931;SDS011;23758;42.640;23.302;2023-11-19T02:56:52;3.40;;;3.20;;
37931;SDS011;23758;42.640;23.302;2023-11-19T02:59:21;3.10;;;2.90;;
37931;SDS011;23758;42.640;23.302;2023-11-19T03:01:53;3.20;;;3.00;;
37931;SDS011;23758;42.640;23.302;2023-11-19T03:04:19;3.30;;;3.10;;
37931;SDS011;23758;42.640;23.302;2023-11-19T03:06:48;3.20;;;3.00;;
37931;SDS011;23758;42.640;23.302;2023-11-19T03:09:14;3.30;;;3.10;;
37931;SDS011;23758;42.640;23.302;2023-11-19T03:11:39;3.20;;;3.00;;
37931;SDS011;23758;42.640;23.302;2023-11-19T03:14:04;3.30;;;3.10;;
37931;SDS011;23758;42.640;23.302;2023-11-19T03:16:30;3.30;;;3.10;;
37931;SDS011;23758;42.640;23.302;2023-11-19T03:18:56;3.30;;;3.10;;
37931;SDS011;23758;42.640;23.302;2023-11-19T03:21:31;3.30;;;3.10;;
37931;SDS011;23758;42.640;23.302;2023-11-19T03:23:56;3.30;;;3.10;;
37931;SDS011;23758;42.640;23.302;2023-11-19T03:26:25;3.30;;;3.10;;
37931;SDS011;23758;42.640;23.302;2023-11-19T03:28:52;3.30;;;3.10;;
37931;SDS011;23758;42.640;23.302;2023-11-19T03:31:18;3.30;;;3.10;;
37931;SDS011;23758;42.640;23.302;2023-11-19T03:33:43;3.40;;;3.20;;
37931;SDS011;23758;42.640;23.302;2023-11-19T03:36:10;3.35;;;3.15;;
37931;SDS011;23758;42.640;23.302;2023-11-19T03:38:35;3.40;;;3.20;;
37931;SDS011;23758;42.640;23.302;2023-11-19T03:41:09;3.40;;;3.20;;
37931;SDS011;23758;42.640;23.302;2023-11-19T03:43:35;3.30;;;3.10;;
37931;SDS011;23758;42.640;23.302;2023-11-19T03:46:01;3.30;;;3.10;;
37931;SDS011;23758;42.640;23.302;2023-11-19T03:48:26;3.40;;;3.20;;
37931;SDS011;23758;42.640;23.302;2023-11-19T03:50:52;3.40;;;3.20;;
37931;SDS011;23758;42.640;23.302;2023-11-19T03:53:17;3.30;;;3.10;;
37931;SDS011;23758;42.640;23.302;2023-11-19T03:55:43;3.20;;;3.00;;
37931;SDS011;23758;42.640;23.302;2023-11-19T03:58:09;3.30;;;3.10;;
37931;SDS011;23758;42.640;23.302;2023-11-19T04:00:34;3.30;;;3.10;;
37931;SDS011;23758;42.640;23.302;2023-11-19T04:03:00;3.10;;;2.90;;
37931;SDS011;23758;42.640;23.302;2023-11-19T04:05:25;3.28;;;3.08;;
37931;SDS011;23758;42.640;23.302;2023-11-19T04:07:51;3.30;;;3.10;;
37931;SDS011;23758;42.640;23.302;2023-11-19T04:10:16;3.25;;;3.05;;
37931;SDS011;23758;42.640;23.302;2023-11-19T04:12:42;3.20;;;3.00;;
37931;SDS011;23758;42.640;23.302;2023-11-19T04:15:08;3.28;;;3.08;;
37931;SDS011;23758;42.640;23.302;2023-11-19T04:17:34;3.40;;;3.20;;
37931;SDS011;23758;42.640;23.302;2023-11-19T04:19:59;3.40;;;3.20;;
37931;SDS011;23758;42.640;23.302;2023-11-19T04:22:25;3.20;;;3.00;;
37931;SDS011;23758;42.640;23.302;2023-11-19T04:24:51;3.60;;;3.40;;
37931;SDS011;23758;42.640;23.302;2023-11-19T04:27:16;3.30;;;3.10;;
37931;SDS011;23758;42.640;23.302;2023-11-19T04:29:42;3.20;;;3.00;;
37931;SDS011;23758;42.640;23.302;2023-11-19T04:32:07;3.30;;;3.10;;
37931;SDS011;23758;42.640;23.302;2023-11-19T04:34:34;3.30;;;3.10;;
37931;SDS011;23758;42.640;23.302;2023-11-19T04:36:59;3.30;;;3.10;;
37931;SDS011;23758;42.640;23.302;2023-11-19T04:39:28;3.40;;;3.20;;
37931;SDS011;23758;42.640;23.302;2023-11-19T04:41:54;3.60;;;3.40;;
37931;SDS011;23758;42.640;23.302;2023-11-19T04:44:19;3.30;;;3.10;;
37931;SDS011;23758;42.640;23.302;2023-11-19T04:46:45;3.20;;;3.00;;
37931;SDS011;23758;42.640;23.302;2023-11-19T04:49:11;3.42;;;3.22;;
37931;SDS011;23758;42.640;23.302;2023-11-19T04:51:40;3.25;;;3.05;;
37931;SDS011;23758;42.640;23.302;2023-11-19T04:54:07;3.38;;;3.17;;
37931;SDS011;23758;42.640;23.302;2023-11-19T04:56:33;3.30;;;3.10;;
37931;SDS011;23758;42.640;23.302;2023-11-19T04:59:00;3.40;;;3.20;;
37931;SDS011;23758;42.640;23.302;2023-11-19T05:01:25;3.30;;;3.10;;
37931;SDS011;23758;42.640;23.302;2023-11-19T05:03:51;3.28;;;3.08;;
37931;SDS011;23758;42.640;23.302;2023-11-19T05:06:16;3.30;;;3.10;;
37931;SDS011;23758;42.640;23.302;2023-11-19T05:08:42;3.30;;;3.10;;
37931;SDS011;23758;42.640;23.302;2023-11-19T05:11:07;3.20;;;3.00;;
37931;SDS011;23758;42.640;23.302;2023-11-19T05:13:37;3.20;;;3.00;;
37931;SDS011;23758;42.640;23.302;2023-11-19T05:16:02;3.25;;;3.05;;
37931;SDS011;23758;42.640;23.302;2023-11-19T05:18:27;3.30;;;3.10;;
37931;SDS011;23758;42.640;23.302;2023-11-19T05:20:53;3.20;;;3.00;;
37931;SDS011;23758;42.640;23.302;2023-11-19T05:23:18;3.30;;;3.10;;
37931;SDS011;23758;42.640;23.302;2023-11-19T05:25:45;3.20;;;3.00;;
37931;SDS011;23758;42.640;23.302;2023-11-19T05:28:10;3.17;;;2.97;;
37931;SDS011;23758;42.640;23.302;2023-11-19T05:30:36;3.10;;;2.90;;
37931;SDS011;23758;42.640;23.302;2023-11-19T05:33:01;3.30;;;3.10;;
37931;SDS011;23758;42.640;23.302;2023-11-19T05:35:27;3.22;;;3.03;;
37931;SDS011;23758;42.640;23.302;2023-11-19T05:37:52;3.30;;;3.10;;
37931;SDS011;23758;42.640;23.302;2023-11-19T05:40:18;3.30;;;3.10;;
37931;SDS011;23758;42.640;23.302;2023-11-19T05:42:45;3.20;;;3.00;;
37931;SDS011;23758;42.640;23.302;2023-11-19T05:45:11;3.20;;;3.00;;
37931;SDS011;23758;42.640;23.302;2023-11-19T05:47:37;3.28;;;3.08;;
37931;SDS011;23758;42.640;23.302;2023-11-19T05:50:02;3.30;;;3.10;;
37931;SDS011;23758;42.640;23.302;2023-11-19T05:52:30;3.33;;;3.13;;
37931;SDS011;23758;42.640;23.302;2023-11-19T05:54:59;3.20;;;3.00;;
37931;SDS011;23758;42.640;23.302;2023-11-19T05:57:27;3.20;;;3.00;;
37931;SDS011;23758;42.640;23.302;2023-11-19T05:59:54;3.20;;;3.00;;
37931;SDS011;23758;42.640;23.302;2023-11-19T06:02:19;3.30;;;3.10;;
37931;SDS011;23758;42.640;23.302;2023-11-19T06:04:45;3.30;;;3.10;;
37931;SDS011;23758;42.640;23.302;2023-11-19T06:07:13;3.20;;;3.00;;
37931;SDS011;23758;42.640;23.302;2023-11-19T06:09:39;3.08;;;2.88;;
37931;SDS011;23758;42.640;23.302;2023-11-19T06:12:05;3.28;;;3.08;;
37931;SDS011;23758;42.640;23.302;2023-11-19T06:14:32;3.20;;;3.00;;
37931;SDS011;23758;42.640;23.302;2023-11-19T06:16:58;3.30;;;3.10;;
37931;SDS011;23758;42.640;23.302;2023-11-19T06:19:23;3.20;;;3.00;;
37931;SDS011;23758;42.640;23.302;2023-11-19T06:21:50;3.28;;;3.08;;
37931;SDS011;23758;42.640;23.302;2023-11-19T06:24:15;3.35;;;3.15;;
37931;SDS011;23758;42.640;23.302;2023-11-19T06:26:41;3.30;;;3.10;;
37931;SDS011;23758;42.640;23.302;2023-11-19T06:29:06;3.13;;;2.92;;
37931;SDS011;23758;42.640;23.302;2023-11-19T06:31:32;3.40;;;3.20;;
37931;SDS011;23758;42.640;23.302;2023-11-19T06:33:57;3.42;;;3.22;;
37931;SDS011;23758;42.640;23.302;2023-11-19T06:36:24;3.58;;;3.38;;
37931;SDS011;23758;42.640;23.302;2023-11-19T06:38:49;3.30;;;3.10;;
37931;SDS011;23758;42.640;23.302;2023-11-19T06:41:15;3.70;;;3.40;;
37931;SDS011;23758;42.640;23.302;2023-11-19T06:43:40;3.40;;;3.20;;
37931;SDS011;23758;42.640;23.302;2023-11-19T06:46:06;3.42;;;3.22;;
37931;SDS011;23758;42.640;23.302;2023-11-19T06:48:40;3.35;;;3.15;;
37931;SDS011;23758;42.640;23.302;2023-11-19T06:51:06;3.30;;;3.10;;
37931;SDS011;23758;42.640;23.302;2023-11-19T06:53:31;3.10;;;2.90;;
37931;SDS011;23758;42.640;23.302;2023-11-19T06:55:57;3.28;;;3.08;;
37931;SDS011;23758;42.640;23.302;2023-11-19T06:58:22;3.30;;;3.10;;
37931;SDS011;23758;42.640;23.302;2023-11-19T07:00:48;3.30;;;3.10;;
37931;SDS011;23758;42.640;23.302;2023-11-19T07:03:14;3.45;;;3.25;;
37931;SDS011;23758;42.640;23.302;2023-11-19T07:05:41;3.20;;;3.00;;
37931;SDS011;23758;42.640;23.302;2023-11-19T07:08:06;3.30;;;3.10;;
37931;SDS011;23758;42.640;23.302;2023-11-19T07:10:35;3.30;;;3.10;;
37931;SDS011;23758;42.640;23.302;2023-11-19T07:13:00;3.40;;;3.20;;
37931;SDS011;23758;42.640;23.302;2023-11-19T07:15:26;3.30;;;3.10;;
37931;SDS011;23758;42.640;23.302;2023-11-19T07:17:51;3.20;;;3.00;;
37931;SDS011;23758;42.640;23.302;2023-11-19T07:20:19;3.25;;;3.05;;
37931;SDS011;23758;42.640;23.302;2023-11-19T07:22:44;3.30;;;3.10;;
37931;SDS011;23758;42.640;23.302;2023-11-19T07:25:12;3.20;;;3.00;;
37931;SDS011;23758;42.640;23.302;2023-11-19T07:27:38;3.25;;;3.05;;
37931;SDS011;23758;42.640;23.302;2023-11-19T07:30:04;3.20;;;3.00;;
37931;SDS011;23758;42.640;23.302;2023-11-19T07:32:32;3.30;;;3.10;;
37931;SDS011;23758;42.640;23.302;2023-11-19T07:34:58;3.30;;;3.10;;
37931;SDS011;23758;42.640;23.302;2023-11-19T07:37:23;3.30;;;3.10;;
37931;SDS011;23758;42.640;23.302;2023-11-19T07:39:49;3.28;;;3.08;;
37931;SDS011;23758;42.640;23.302;2023-11-19T07:42:14;3.20;;;3.00;;
37931;SDS011;23758;42.640;23.302;2023-11-19T07:44:40;3.40;;;3.20;;
37931;SDS011;23758;42.640;23.302;2023-11-19T07:47:06;3.40;;;3.20;;
37931;SDS011;23758;42.640;23.302;2023-11-19T07:49:32;3.20;;;3.00;;
37931;SDS011;23758;42.640;23.302;2023-11-19T07:51:58;3.40;;;3.20;;
37931;SDS011;23758;42.640;23.302;2023-11-19T07:54:23;3.20;;;3.00;;
37931;SDS011;23758;42.640;23.302;2023-11-19T07:56:49;3.20;;;3.00;;
37931;SDS011;23758;42.640;23.302;2023-11-19T07:59:15;3.22;;;3.03;;
37931;SDS011;23758;42.640;23.302;2023-11-19T08:01:41;3.88;;;3.58;;
37931;SDS011;23758;42.640;23.302;2023-11-19T08:04:06;3.30;;;3.10;;
37931;SDS011;23758;42.640;23.302;2023-11-19T08:06:31;3.40;;;3.20;;
37931;SDS011;23758;42.640;23.302;2023-11-19T08:08:57;3.30;;;3.10;;
37931;SDS011;23758;42.640;23.302;2023-11-19T08:11:23;3.30;;;3.10;;
37931;SDS011;23758;42.640;23.302;2023-11-19T08:13:49;3.30;;;3.10;;
37931;SDS011;23758;42.640;23.302;2023-11-19T08:16:14;3.40;;;3.20;;
37931;SDS011;23758;42.640;23.302;2023-11-19T08:18:43;3.40;;;3.20;;
37931;SDS011;23758;42.640;23.302;2023-11-19T08:21:09;3.33;;;3.13;;
37931;SDS011;23758;42.640;23.302;2023-11-19T08:23:35;3.28;;;3.08;;
37931;SDS011;23758;42.640;23.302;2023-11-19T08:26:01;3.30;;;3.10;;
37931;SDS011;23758;42.640;23.302;2023-11-19T08:28:27;3.30;;;3.10;;
37931;SDS011;23758;42.640;23.302;2023-11-19T08:30:52;3.30;;;3.10;;
37931;SDS011;23758;42.640;23.302;2023-11-19T08:33:18;3.30;;;3.10;;
37931;SDS011;23758;42.640;23.302;2023-11-19T08:35:43;3.20;;;3.00;;
37931;SDS011;23758;42.640;23.302;2023-11-19T08:38:10;3.20;;;3.00;;
37931;SDS011;23758;42.640;23.302;2023-11-19T08:40:36;3.30;;;3.10;;
37931;SDS011;23758;42.640;23.302;2023-11-19T08:43:02;3.20;;;3.00;;
37931;SDS011;23758;42.640;23.302;2023-11-19T08:45:27;3.40;;;3.20;;
37931;SDS011;23758;42.640;23.302;2023-11-19T08:47:53;3.30;;;3.10;;
37931;SDS011;23758;42.640;23.302;2023-11-19T08:50:18;3.30;;;3.10;;
37931;SDS011;23758;42.640;23.302;2023-11-19T08:52:44;3.40;;;3.20;;
37931;SDS011;23758;42.640;23.302;2023-11-19T08:55:09;3.10;;;2.90;;
37931;SDS011;23758;42.640;23.302;2023-11-19T08:57:35;3.30;;;3.10;;
37931;SDS011;23758;42.640;23.302;2023-11-19T09:00:01;3.58;;;3.38;;
37931;SDS011;23758;42.640;23.302;2023-11-19T09:02:28;3.40;;;3.20;;
37931;SDS011;23758;42.640;23.302;2023-11-19T09:04:53;3.30;;;3.10;;
37931;SDS011;23758;42.640;23.302;2023-11-19T09:07:18;3.30;;;3.10;;
37931;SDS011;23758;42.640;23.302;2023-11-19T09:09:46;3.30;;;3.10;;
37931;SDS011;23758;42.640;23.302;2023-11-19T09:12:11;3.20;;;3.00;;
37931;SDS011;23758;42.640;23.302;2023-11-19T09:14:38;3.20;;;3.00;;
37931;SDS011;23758;42.640;23.302;2023-11-19T09:17:03;3.20;;;3.00;;
37931;SDS011;23758;42.640;23.302;2023-11-19T09:19:31;3.20;;;3.00;;
37931;SDS011;23758;42.640;23.302;2023-11-19T09:21:57;3.00;;;2.80;;
37931;SDS011;23758;42.640;23.302;2023-11-19T09:24:23;3.20;;;3.00;;
37931;SDS011;23758;42.640;23.302;2023-11-19T09:26:48;3.10;;;2.90;;
37931;SDS011;23758;42.640;23.302;2023-11-19T09:29:14;3.05;;;2.85;;
37931;SDS011;23758;42.640;23.302;2023-11-19T09:31:39;3.10;;;2.90;;
37931;SDS011;23758;42.640;23.302;2023-11-19T09:34:05;3.28;;;3.08;;
37931;SDS011;23758;42.640;23.302;2023-11-19T09:36:30;3.00;;;2.80;;
37931;SDS011;23758;42.640;23.302;2023-11-19T09:38:56;3.10;;;2.90;;
37931;SDS011;23758;42.640;23.302;2023-11-19T09:41:22;3.08;;;2.88;;
37931;SDS011;23758;42.640;23.302;2023-11-19T09:43:48;2.90;;;2.70;;
37931;SDS011;23758;42.640;23.302;2023-11-19T09:46:14;3.30;;;3.10;;
37931;SDS011;23758;42.640;23.302;2023-11-19T09:48:40;3.00;;;2.80;;
37931;SDS011;23758;42.640;23.302;2023-11-19T09:51:06;2.97;;;2.78;;
37931;SDS011;23758;42.640;23.302;2023-11-19T09:53:33;3.20;;;3.00;;
37931;SDS011;23758;42.640;23.302;2023-11-19T09:56:02;3.53;;;3.22;;
37931;SDS011;23758;42.640;23.302;2023-11-19T09:58:29;3.40;;;3.20;;
37931;SDS011;23758;42.640;23.302;2023-11-19T10:00:56;3.10;;;2.90;;
37931;SDS011;23758;42.640;23.302;2023-11-19T10:03:24;3.20;;;3.00;;
37931;SDS011;23758;42.640;23.302;2023-11-19T10:05:50;3.20;;;3.00;;
37931;SDS011;23758;42.640;23.302;2023-11-19T10:08:15;3.22;;;3.03;;
37931;SDS011;23758;42.640;23.302;2023-11-19T10:10:42;3.50;;;3.30;;
37931;SDS011;23758;42.640;23.302;2023-11-19T10:13:08;3.30;;;3.10;;
37931;SDS011;23758;42.640;23.302;2023-11-19T10:15:35;3.20;;;3.00;;
37931;SDS011;23758;42.640;23.302;2023-11-19T10:18:01;3.30;;;3.10;;
37931;SDS011;23758;42.640;23.302;2023-11-19T10:20:27;3.10;;;2.90;;
37931;SDS011;23758;42.640;23.302;2023-11-19T10:22:53;3.13;;;2.92;;
37931;SDS011;23758;42.640;23.302;2023-11-19T10:27:52;3.15;;;2.95;;
37931;SDS011;23758;42.640;23.302;2023-11-19T10:30:28;3.10;;;2.90;;
37931;SDS011;23758;42.640;23.302;2023-11-19T10:35:52;3.17;;;2.97;;
37931;SDS011;23758;42.640;23.302;2023-11-19T10:38:19;3.40;;;3.20;;
37931;SDS011;23758;42.640;23.302;2023-11-19T10:40:44;3.03;;;2.83;;
37931;SDS011;23758;42.640;23.302;2023-11-19T10:43:10;3.10;;;2.90;;
37931;SDS011;23758;42.640;23.302;2023-11-19T10:45:36;3.10;;;2.90;;
37931;SDS011;23758;42.640;23.302;2023-11-19T10:48:03;3.10;;;2.90;;
37931;SDS011;23758;42.640;23.302;2023-11-19T10:50:35;3.10;;;2.90;;
37931;SDS011;23758;42.640;23.302;2023-11-19T10:53:01;3.00;;;2.80;;
37931;SDS011;23758;42.640;23.302;2023-11-19T10:55:32;3.15;;;2.95;;
37931;SDS011;23758;42.640;23.302;2023-11-19T10:58:01;3.20;;;3.00;;
37931;SDS011;23758;42.640;23.302;2023-11-19T11:00:36;3.10;;;2.90;;
37931;SDS011;23758;42.640;23.302;2023-11-19T11:03:21;3.10;;;2.90;;
37931;SDS011;23758;42.640;23.302;2023-11-19T11:05:50;3.15;;;2.95;;
37931;SDS011;23758;42.640;23.302;2023-11-19T11:08:17;3.05;;;2.85;;
37931;SDS011;23758;42.640;23.302;2023-11-19T11:13:19;3.10;;;2.90;;
37931;SDS011;23758;42.640;23.302;2023-11-19T11:15:48;3.00;;;2.80;;
37931;SDS011;23758;42.640;23.302;2023-11-19T11:18:14;3.20;;;3.00;;
37931;SDS011;23758;42.640;23.302;2023-11-19T11:20:40;3.10;;;2.90;;
37931;SDS011;23758;42.640;23.302;2023-11-19T11:35:24;3.08;;;2.88;;
37931;SDS011;23758;42.640;23.302;2023-11-19T11:37:55;3.20;;;3.00;;
37931;SDS011;23758;42.640;23.302;2023-11-19T11:40:31;3.00;;;2.80;;
37931;SDS011;23758;42.640;23.302;2023-11-19T11:42:57;3.10;;;2.90;;
37931;SDS011;23758;42.640;23.302;2023-11-19T11:45:44;3.10;;;2.90;;
37931;SDS011;23758;42.640;23.302;2023-11-19T11:48:17;3.20;;;3.00;;
37931;SDS011;23758;42.640;23.302;2023-11-19T11:50:52;3.20;;;3.00;;
37931;SDS011;23758;42.640;23.302;2023-11-19T11:53:20;3.00;;;2.80;;
37931;SDS011;23758;42.640;23.302;2023-11-19T11:58:13;3.03;;;2.83;;
37931;SDS011;23758;42.640;23.302;2023-11-19T12:00:43;3.00;;;2.80;;
37931;SDS011;23758;42.640;23.302;2023-11-19T12:03:08;3.10;;;2.90;;
37931;SDS011;23758;42.640;23.302;2023-11-19T12:05:41;3.45;;;3.17;;
37931;SDS011;23758;42.640;23.302;2023-11-19T12:08:10;3.08;;;2.88;;
37931;SDS011;23758;42.640;23.302;2023-11-19T12:10:37;2.90;;;2.70;;
37931;SDS011;23758;42.640;23.302;2023-11-19T12:13:09;3.10;;;2.90;;
37931;SDS011;23758;42.640;23.302;2023-11-19T12:18:21;2.88;;;2.67;;
37931;SDS011;23758;42.640;23.302;2023-11-19T12:20:48;2.90;;;2.70;;
37931;SDS011;23758;42.640;23.302;2023-11-19T12:23:14;3.00;;;2.80;;
37931;SDS011;23758;42.640;23.302;2023-11-19T12:25:39;3.28;;;3.08;;
37931;SDS011;23758;42.640;23.302;2023-11-19T12:28:05;2.90;;;2.70;;
37931;SDS011;23758;42.640;23.302;2023-11-19T12:30:31;3.00;;;2.80;;
37931;SDS011;23758;42.640;23.302;2023-11-19T12:32:56;3.00;;;2.80;;
37931;SDS011;23758;42.640;23.302;2023-11-19T12:35:22;3.00;;;2.80;;
37931;SDS011;23758;42.640;23.302;2023-11-19T12:37:49;2.90;;;2.70;;
37931;SDS011;23758;42.640;23.302;2023-11-19T12:40:16;2.90;;;2.70;;
37931;SDS011;23758;42.640;23.302;2023-11-19T12:42:49;2.83;;;2.63;;
37931;SDS011;23758;42.640;23.302;2023-11-19T12:45:16;2.80;;;2.60;;
37931;SDS011;23758;42.640;23.302;2023-11-19T12:47:45;3.00;;;2.80;;
37931;SDS011;23758;42.640;23.302;2023-11-19T12:50:14;2.90;;;2.70;;
37931;SDS011;23758;42.640;23.302;2023-11-19T12:52:42;2.90;;;2.70;;
37931;SDS011;23758;42.640;23.302;2023-11-19T12:55:27;2.97;;;2.78;;
37931;SDS011;23758;42.640;23.302;2023-11-19T12:57:57;2.90;;;2.70;;
37931;SDS011;23758;42.640;23.302;2023-11-19T13:00:24;2.92;;;2.72;;
37931;SDS011;23758;42.640;23.302;2023-11-19T13:02:55;2.90;;;2.70;;
37931;SDS011;23758;42.640;23.302;2023-11-19T13:05:22;2.90;;;2.70;;
37931;SDS011;23758;42.640;23.302;2023-11-19T13:07:48;3.15;;;2.95;;
37931;SDS011;23758;42.640;23.302;2023-11-19T13:10:13;2.90;;;2.70;;
37931;SDS011;23758;42.640;23.302;2023-11-19T13:12:39;2.90;;;2.70;;
37931;SDS011;23758;42.640;23.302;2023-11-19T13:15:04;3.00;;;2.80;;
37931;SDS011;23758;42.640;23.302;2023-11-19T13:17:30;2.90;;;2.70;;
37931;SDS011;23758;42.640;23.302;2023-11-19T13:19:56;2.85;;;2.65;;
37931;SDS011;23758;42.640;23.302;2023-11-19T13:22:22;2.80;;;2.60;;
37931;SDS011;23758;42.640;23.302;2023-11-19T13:24:47;2.90;;;2.70;;
37931;SDS011;23758;42.640;23.302;2023-11-19T13:27:13;2.90;;;2.70;;
37931;SDS011;23758;42.640;23.302;2023-11-19T13:29:39;2.90;;;2.70;;
37931;SDS011;23758;42.640;23.302;2023-11-19T13:32:04;3.00;;;2.80;;
37931;SDS011;23758;42.640;23.302;2023-11-19T13:34:30;3.00;;;2.80;;
37931;SDS011;23758;42.640;23.302;2023-11-19T13:36:56;2.80;;;2.60;;
37931;SDS011;23758;42.640;23.302;2023-11-19T13:39:22;2.80;;;2.60;;
37931;SDS011;23758;42.640;23.302;2023-11-19T13:41:48;2.90;;;2.70;;
37931;SDS011;23758;42.640;23.302;2023-11-19T13:44:15;3.00;;;2.80;;
37931;SDS011;23758;42.640;23.302;2023-11-19T13:46:44;2.90;;;2.70;;
37931;SDS011;23758;42.640;23.302;2023-11-19T13:49:10;2.80;;;2.60;;
37931;SDS011;23758;42.640;23.302;2023-11-19T13:51:35;2.95;;;2.75;;
37931;SDS011;23758;42.640;23.302;2023-11-19T13:54:01;3.00;;;2.80;;
37931;SDS011;23758;42.640;23.302;2023-11-19T13:56:26;2.70;;;2.50;;
37931;SDS011;23758;42.640;23.302;2023-11-19T13:58:52;2.80;;;2.60;;
37931;SDS011;23758;42.640;23.302;2023-11-19T14:01:18;2.70;;;2.50;;
37931;SDS011;23758;42.640;23.302;2023-11-19T14:03:44;2.80;;;2.60;;
37931;SDS011;23758;42.640;23.302;2023-11-19T14:06:10;2.78;;;2.58;;
37931;SDS011;23758;42.640;23.302;2023-11-19T14:08:36;2.70;;;2.50;;
37931;SDS011;23758;42.640;23.302;2023-11-19T14:11:01;2.80;;;2.60;;
37931;SDS011;23758;42.640;23.302;2023-11-19T14:13:27;2.90;;;2.70;;
37931;SDS011;23758;42.640;23.302;2023-11-19T14:15:52;2.80;;;2.60;;
37931;SDS011;23758;42.640;23.302;2023-11-19T14:18:18;2.97;;;2.78;;
37931;SDS011;23758;42.640;23.302;2023-11-19T14:20:43;3.10;;;2.90;;
37931;SDS011;23758;42.640;23.302;2023-11-19T14:23:09;3.00;;;2.80;;
37931;SDS011;23758;42.640;23.302;2023-11-19T14:25:34;2.60;;;2.42;;
37931;SDS011;23758;42.640;23.302;2023-11-19T14:28:00;2.95;;;2.75;;
37931;SDS011;23758;42.640;23.302;2023-11-19T14:30:25;2.90;;;2.70;;
37931;SDS011;23758;42.640;23.302;2023-11-19T14:32:51;2.90;;;2.70;;
37931;SDS011;23758;42.640;23.302;2023-11-19T14:35:18;2.90;;;2.70;;
37931;SDS011;23758;42.640;23.302;2023-11-19T14:37:45;3.00;;;2.80;;
37931;SDS011;23758;42.640;23.302;2023-11-19T14:40:11;2.90;;;2.70;;
37931;SDS011;23758;42.640;23.302;2023-11-19T14:42:36;2.88;;;2.67;;
37931;SDS011;23758;42.640;23.302;2023-11-19T14:45:04;2.83;;;2.63;;
37931;SDS011;23758;42.640;23.302;2023-11-19T14:47:30;3.00;;;2.80;;
37931;SDS011;23758;42.640;23.302;2023-11-19T14:49:55;2.90;;;2.70;;
37931;SDS011;23758;42.640;23.302;2023-11-19T14:52:21;2.80;;;2.60;;
37931;SDS011;23758;42.640;23.302;2023-11-19T14:54:46;2.90;;;2.70;;
37931;SDS011;23758;42.640;23.302;2023-11-19T14:57:12;2.80;;;2.60;;